sensor_id;sensor_type;location;lat;lon;timestamp;temperature;humidity
69189;DHT22;56302;52.322;5.926;2022-08-01T00:00:34;18.60;88.40
69189;DHT22;56302;52.322;5.926;2022-08-01T00:02:59;18.60;88.50
69189;DHT22;56302;52.322;5.926;2022-08-01T00:05:25;18.60;88.50
69189;DHT22;56302;52.322;5.926;2022-08-01T00:07:51;18.60;88.40
69189;DHT22;56302;52.322;5.926;2022-08-01T00:10:17;18.60;88.30
69189;DHT22;56302;52.322;5.926;2022-08-01T00:12:44;18.60;88.30
69189;DHT22;56302;52.322;5.926;2022-08-01T00:15:12;18.60;88.40
69189;DHT22;56302;52.322;5.926;2022-08-01T00:17:39;18.60;88.40
69189;DHT22;56302;52.322;5.926;2022-08-01T00:20:07;18.60;88.30
69189;DHT22;56302;52.322;5.926;2022-08-01T00:22:33;18.60;88.40
69189;DHT22;56302;52.322;5.926;2022-08-01T00:24:59;18.60;88.30
69189;DHT22;56302;52.322;5.926;2022-08-01T00:27:25;18.60;88.10
69189;DHT22;56302;52.322;5.926;2022-08-01T00:29:50;18.60;88.10
69189;DHT22;56302;52.322;5.926;2022-08-01T00:32:16;18.60;88.20
69189;DHT22;56302;52.322;5.926;2022-08-01T00:34:41;18.60;88.40
69189;DHT22;56302;52.322;5.926;2022-08-01T00:37:07;18.60;88.50
69189;DHT22;56302;52.322;5.926;2022-08-01T00:39:32;18.60;88.70
69189;DHT22;56302;52.322;5.926;2022-08-01T00:41:59;18.50;88.80
69189;DHT22;56302;52.322;5.926;2022-08-01T00:44:25;18.50;88.40
69189;DHT22;56302;52.322;5.926;2022-08-01T00:46:50;18.50;88.60
69189;DHT22;56302;52.322;5.926;2022-08-01T00:49:16;18.60;88.50
69189;DHT22;56302;52.322;5.926;2022-08-01T00:51:42;18.50;89.00
69189;DHT22;56302;52.322;5.926;2022-08-01T00:54:07;18.50;89.30
69189;DHT22;56302;52.322;5.926;2022-08-01T00:56:33;18.50;89.50
69189;DHT22;56302;52.322;5.926;2022-08-01T00:58:59;18.50;89.30
69189;DHT22;56302;52.322;5.926;2022-08-01T01:01:24;18.50;89.40
69189;DHT22;56302;52.322;5.926;2022-08-01T01:03:51;18.50;89.30
69189;DHT22;56302;52.322;5.926;2022-08-01T01:17:32;18.40;89.30
69189;DHT22;56302;52.322;5.926;2022-08-01T01:19:59;18.40;89.40
69189;DHT22;56302;52.322;5.926;2022-08-01T01:22:43;18.40;89.40
69189;DHT22;56302;52.322;5.926;2022-08-01T01:28:08;18.40;89.30
69189;DHT22;56302;52.322;5.926;2022-08-01T01:30:36;18.40;89.60
69189;DHT22;56302;52.322;5.926;2022-08-01T01:33:05;18.40;89.60
69189;DHT22;56302;52.322;5.926;2022-08-01T01:35:35;18.40;89.60
69189;DHT22;56302;52.322;5.926;2022-08-01T01:38:09;18.40;89.70
69189;DHT22;56302;52.322;5.926;2022-08-01T01:40:37;18.40;89.90
69189;DHT22;56302;52.322;5.926;2022-08-01T01:43:04;18.40;89.80
69189;DHT22;56302;52.322;5.926;2022-08-01T01:45:33;18.40;89.90
69189;DHT22;56302;52.322;5.926;2022-08-01T01:48:00;18.40;90.00
69189;DHT22;56302;52.322;5.926;2022-08-01T01:50:26;18.40;89.80
69189;DHT22;56302;52.322;5.926;2022-08-01T01:52:53;18.40;89.80
69189;DHT22;56302;52.322;5.926;2022-08-01T01:55:21;18.40;89.90
69189;DHT22;56302;52.322;5.926;2022-08-01T01:57:48;18.40;89.90
69189;DHT22;56302;52.322;5.926;2022-08-01T02:00:14;18.30;90.00
69189;DHT22;56302;52.322;5.926;2022-08-01T02:02:41;18.30;90.10
69189;DHT22;56302;52.322;5.926;2022-08-01T02:05:10;18.30;90.00
69189;DHT22;56302;52.322;5.926;2022-08-01T02:07:37;18.30;90.00
69189;DHT22;56302;52.322;5.926;2022-08-01T02:10:05;18.30;90.00
69189;DHT22;56302;52.322;5.926;2022-08-01T02:12:35;18.30;89.90
69189;DHT22;56302;52.322;5.926;2022-08-01T02:15:02;18.30;90.20
69189;DHT22;56302;52.322;5.926;2022-08-01T02:17:29;18.30;90.00
69189;DHT22;56302;52.322;5.926;2022-08-01T02:19:55;18.30;90.10
69189;DHT22;56302;52.322;5.926;2022-08-01T02:22:32;18.30;90.40
69189;DHT22;56302;52.322;5.926;2022-08-01T02:25:03;18.30;90.30
69189;DHT22;56302;52.322;5.926;2022-08-01T02:27:34;18.30;90.30
69189;DHT22;56302;52.322;5.926;2022-08-01T02:30:08;18.30;90.40
69189;DHT22;56302;52.322;5.926;2022-08-01T02:32:41;18.30;90.40
69189;DHT22;56302;52.322;5.926;2022-08-01T02:35:12;18.30;90.50
69189;DHT22;56302;52.322;5.926;2022-08-01T02:37:39;18.30;90.40
69189;DHT22;56302;52.322;5.926;2022-08-01T02:40:07;18.30;90.40
69189;DHT22;56302;52.322;5.926;2022-08-01T02:42:36;18.30;90.30
69189;DHT22;56302;52.322;5.926;2022-08-01T02:45:04;18.30;90.20
69189;DHT22;56302;52.322;5.926;2022-08-01T02:47:31;18.30;90.20
69189;DHT22;56302;52.322;5.926;2022-08-01T02:49:58;18.30;90.20
69189;DHT22;56302;52.322;5.926;2022-08-01T02:52:26;18.30;90.20
69189;DHT22;56302;52.322;5.926;2022-08-01T02:54:55;18.30;90.30
69189;DHT22;56302;52.322;5.926;2022-08-01T02:57:22;18.30;90.30
69189;DHT22;56302;52.322;5.926;2022-08-01T02:59:49;18.30;90.40
69189;DHT22;56302;52.322;5.926;2022-08-01T03:02:16;18.30;90.50
69189;DHT22;56302;52.322;5.926;2022-08-01T03:04:44;18.30;90.70
69189;DHT22;56302;52.322;5.926;2022-08-01T03:07:10;18.30;90.50
69189;DHT22;56302;52.322;5.926;2022-08-01T03:09:43;18.30;90.20
69189;DHT22;56302;52.322;5.926;2022-08-01T03:12:13;18.30;90.10
69189;DHT22;56302;52.322;5.926;2022-08-01T03:14:40;18.30;90.30
69189;DHT22;56302;52.322;5.926;2022-08-01T03:17:08;18.30;90.40
69189;DHT22;56302;52.322;5.926;2022-08-01T03:19:35;18.30;90.30
69189;DHT22;56302;52.322;5.926;2022-08-01T03:22:06;18.30;90.50
69189;DHT22;56302;52.322;5.926;2022-08-01T03:24:33;18.30;90.50
69189;DHT22;56302;52.322;5.926;2022-08-01T03:27:00;18.20;90.60
69189;DHT22;56302;52.322;5.926;2022-08-01T03:29:27;18.20;90.50
69189;DHT22;56302;52.322;5.926;2022-08-01T03:31:56;18.30;90.60
69189;DHT22;56302;52.322;5.926;2022-08-01T03:34:22;18.20;90.70
69189;DHT22;56302;52.322;5.926;2022-08-01T03:36:55;18.20;90.80
69189;DHT22;56302;52.322;5.926;2022-08-01T03:39:25;18.20;90.80
69189;DHT22;56302;52.322;5.926;2022-08-01T03:41:59;18.20;90.80
69189;DHT22;56302;52.322;5.926;2022-08-01T03:44:27;18.20;90.70
69189;DHT22;56302;52.322;5.926;2022-08-01T03:47:00;18.20;90.70
69189;DHT22;56302;52.322;5.926;2022-08-01T03:49:30;18.20;90.90
69189;DHT22;56302;52.322;5.926;2022-08-01T03:51:57;18.20;90.80
69189;DHT22;56302;52.322;5.926;2022-08-01T03:54:25;18.20;90.60
69189;DHT22;56302;52.322;5.926;2022-08-01T03:56:53;18.20;90.70
69189;DHT22;56302;52.322;5.926;2022-08-01T03:59:20;18.20;90.80
69189;DHT22;56302;52.322;5.926;2022-08-01T04:01:47;18.20;90.90
69189;DHT22;56302;52.322;5.926;2022-08-01T04:04:14;18.20;90.80
69189;DHT22;56302;52.322;5.926;2022-08-01T04:06:40;18.20;91.30
69189;DHT22;56302;52.322;5.926;2022-08-01T04:09:09;18.10;91.30
69189;DHT22;56302;52.322;5.926;2022-08-01T04:11:35;17.90;91.60
69189;DHT22;56302;52.322;5.926;2022-08-01T04:14:00;17.90;91.70
69189;DHT22;56302;52.322;5.926;2022-08-01T04:16:26;18.00;91.70
69189;DHT22;56302;52.322;5.926;2022-08-01T04:18:52;17.90;91.60
69189;DHT22;56302;52.322;5.926;2022-08-01T04:21:20;17.90;91.80
69189;DHT22;56302;52.322;5.926;2022-08-01T04:23:46;17.90;91.80
69189;DHT22;56302;52.322;5.926;2022-08-01T04:26:14;17.90;91.90
69189;DHT22;56302;52.322;5.926;2022-08-01T04:28:41;17.90;91.70
69189;DHT22;56302;52.322;5.926;2022-08-01T04:31:09;17.90;91.30
69189;DHT22;56302;52.322;5.926;2022-08-01T04:33:42;17.90;90.80
69189;DHT22;56302;52.322;5.926;2022-08-01T04:36:10;17.80;91.20
69189;DHT22;56302;52.322;5.926;2022-08-01T04:38:37;17.80;91.60
69189;DHT22;56302;52.322;5.926;2022-08-01T04:41:03;17.80;91.20
69189;DHT22;56302;52.322;5.926;2022-08-01T04:43:32;17.80;91.10
69189;DHT22;56302;52.322;5.926;2022-08-01T04:45:58;17.80;91.10
69189;DHT22;56302;52.322;5.926;2022-08-01T04:48:24;17.80;91.00
69189;DHT22;56302;52.322;5.926;2022-08-01T04:50:50;17.80;90.90
69189;DHT22;56302;52.322;5.926;2022-08-01T04:53:16;17.80;90.80
69189;DHT22;56302;52.322;5.926;2022-08-01T04:55:46;17.80;90.90
69189;DHT22;56302;52.322;5.926;2022-08-01T04:58:12;17.80;91.20
69189;DHT22;56302;52.322;5.926;2022-08-01T05:00:38;17.70;91.30
69189;DHT22;56302;52.322;5.926;2022-08-01T05:03:04;17.80;91.20
69189;DHT22;56302;52.322;5.926;2022-08-01T05:05:29;17.80;91.10
69189;DHT22;56302;52.322;5.926;2022-08-01T05:07:56;17.80;91.30
69189;DHT22;56302;52.322;5.926;2022-08-01T05:10:21;17.80;91.30
69189;DHT22;56302;52.322;5.926;2022-08-01T05:12:47;17.80;91.00
69189;DHT22;56302;52.322;5.926;2022-08-01T05:15:12;17.90;91.20
69189;DHT22;56302;52.322;5.926;2022-08-01T05:17:38;17.90;91.20
69189;DHT22;56302;52.322;5.926;2022-08-01T05:20:04;17.90;91.20
69189;DHT22;56302;52.322;5.926;2022-08-01T05:22:31;17.90;91.20
69189;DHT22;56302;52.322;5.926;2022-08-01T05:24:57;17.90;91.30
69189;DHT22;56302;52.322;5.926;2022-08-01T05:27:24;17.90;91.30
69189;DHT22;56302;52.322;5.926;2022-08-01T05:29:50;18.00;91.10
69189;DHT22;56302;52.322;5.926;2022-08-01T05:32:15;18.00;91.10
69189;DHT22;56302;52.322;5.926;2022-08-01T05:34:41;18.00;91.70
69189;DHT22;56302;52.322;5.926;2022-08-01T05:37:06;18.00;91.80
69189;DHT22;56302;52.322;5.926;2022-08-01T05:39:32;18.10;91.90
69189;DHT22;56302;52.322;5.926;2022-08-01T05:41:58;18.00;92.30
69189;DHT22;56302;52.322;5.926;2022-08-01T05:44:23;18.10;92.10
69189;DHT22;56302;52.322;5.926;2022-08-01T05:46:50;18.10;92.20
69189;DHT22;56302;52.322;5.926;2022-08-01T05:49:16;18.10;92.10
69189;DHT22;56302;52.322;5.926;2022-08-01T05:51:42;18.20;91.80
69189;DHT22;56302;52.322;5.926;2022-08-01T05:54:07;18.20;91.70
69189;DHT22;56302;52.322;5.926;2022-08-01T05:56:33;18.20;91.70
69189;DHT22;56302;52.322;5.926;2022-08-01T05:58:58;18.20;91.70
69189;DHT22;56302;52.322;5.926;2022-08-01T06:01:24;18.20;91.70
69189;DHT22;56302;52.322;5.926;2022-08-01T06:03:50;18.30;91.70
69189;DHT22;56302;52.322;5.926;2022-08-01T06:06:15;18.30;91.80
69189;DHT22;56302;52.322;5.926;2022-08-01T06:08:41;18.30;91.60
69189;DHT22;56302;52.322;5.926;2022-08-01T06:11:07;18.40;91.30
69189;DHT22;56302;52.322;5.926;2022-08-01T06:13:32;18.30;91.40
69189;DHT22;56302;52.322;5.926;2022-08-01T06:15:58;18.40;91.00
69189;DHT22;56302;52.322;5.926;2022-08-01T06:18:24;18.40;90.90
69189;DHT22;56302;52.322;5.926;2022-08-01T06:20:49;18.40;90.60
69189;DHT22;56302;52.322;5.926;2022-08-01T06:23:15;18.40;90.80
69189;DHT22;56302;52.322;5.926;2022-08-01T06:25:42;18.40;91.00
69189;DHT22;56302;52.322;5.926;2022-08-01T06:28:07;18.60;90.90
69189;DHT22;56302;52.322;5.926;2022-08-01T06:30:33;18.70;90.60
69189;DHT22;56302;52.322;5.926;2022-08-01T06:32:58;18.70;90.60
69189;DHT22;56302;52.322;5.926;2022-08-01T06:35:25;18.90;90.50
69189;DHT22;56302;52.322;5.926;2022-08-01T06:37:51;19.00;89.60
69189;DHT22;56302;52.322;5.926;2022-08-01T06:40:17;18.90;88.70
69189;DHT22;56302;52.322;5.926;2022-08-01T06:42:43;18.90;88.80
69189;DHT22;56302;52.322;5.926;2022-08-01T06:45:11;18.90;88.70
69189;DHT22;56302;52.322;5.926;2022-08-01T06:47:38;19.00;89.50
69189;DHT22;56302;52.322;5.926;2022-08-01T06:50:05;19.50;89.50
69189;DHT22;56302;52.322;5.926;2022-08-01T06:52:32;19.70;87.60
69189;DHT22;56302;52.322;5.926;2022-08-01T06:54:58;19.60;87.20
69189;DHT22;56302;52.322;5.926;2022-08-01T06:57:24;19.50;87.60
69189;DHT22;56302;52.322;5.926;2022-08-01T06:59:50;19.40;87.10
69189;DHT22;56302;52.322;5.926;2022-08-01T07:02:15;19.30;88.20
69189;DHT22;56302;52.322;5.926;2022-08-01T07:04:41;19.30;88.00
69189;DHT22;56302;52.322;5.926;2022-08-01T07:07:06;19.20;87.10
69189;DHT22;56302;52.322;5.926;2022-08-01T07:09:32;19.10;86.90
69189;DHT22;56302;52.322;5.926;2022-08-01T07:11:58;19.10;87.40
69189;DHT22;56302;52.322;5.926;2022-08-01T07:14:24;19.10;87.20
69189;DHT22;56302;52.322;5.926;2022-08-01T07:16:50;19.10;87.10
69189;DHT22;56302;52.322;5.926;2022-08-01T07:19:16;19.10;87.20
69189;DHT22;56302;52.322;5.926;2022-08-01T07:21:42;19.00;87.10
69189;DHT22;56302;52.322;5.926;2022-08-01T07:24:10;19.00;87.30
69189;DHT22;56302;52.322;5.926;2022-08-01T07:26:35;19.10;87.50
69189;DHT22;56302;52.322;5.926;2022-08-01T07:29:01;19.10;87.60
69189;DHT22;56302;52.322;5.926;2022-08-01T07:31:28;19.10;87.40
69189;DHT22;56302;52.322;5.926;2022-08-01T07:33:53;19.10;87.30
69189;DHT22;56302;52.322;5.926;2022-08-01T07:36:19;19.10;87.30
69189;DHT22;56302;52.322;5.926;2022-08-01T07:38:45;19.10;87.20
69189;DHT22;56302;52.322;5.926;2022-08-01T07:41:11;19.00;86.80
69189;DHT22;56302;52.322;5.926;2022-08-01T07:43:37;18.70;86.00
69189;DHT22;56302;52.322;5.926;2022-08-01T07:46:03;18.50;86.70
69189;DHT22;56302;52.322;5.926;2022-08-01T07:48:30;18.40;87.30
69189;DHT22;56302;52.322;5.926;2022-08-01T07:50:56;18.50;88.10
69189;DHT22;56302;52.322;5.926;2022-08-01T07:53:22;18.50;87.40
69189;DHT22;56302;52.322;5.926;2022-08-01T07:55:47;18.50;86.30
69189;DHT22;56302;52.322;5.926;2022-08-01T07:58:13;18.60;86.40
69189;DHT22;56302;52.322;5.926;2022-08-01T08:00:39;18.60;86.30
69189;DHT22;56302;52.322;5.926;2022-08-01T08:03:05;18.80;87.20
69189;DHT22;56302;52.322;5.926;2022-08-01T08:05:31;18.80;86.30
69189;DHT22;56302;52.322;5.926;2022-08-01T08:08:06;19.00;85.80
69189;DHT22;56302;52.322;5.926;2022-08-01T08:10:32;19.10;84.20
69189;DHT22;56302;52.322;5.926;2022-08-01T08:12:58;19.10;84.50
69189;DHT22;56302;52.322;5.926;2022-08-01T08:15:24;19.00;84.10
69189;DHT22;56302;52.322;5.926;2022-08-01T08:17:50;19.00;84.60
69189;DHT22;56302;52.322;5.926;2022-08-01T08:20:15;19.20;84.20
69189;DHT22;56302;52.322;5.926;2022-08-01T08:22:41;19.30;84.00
69189;DHT22;56302;52.322;5.926;2022-08-01T08:25:08;19.40;83.10
69189;DHT22;56302;52.322;5.926;2022-08-01T08:27:35;19.40;83.80
69189;DHT22;56302;52.322;5.926;2022-08-01T08:30:02;19.50;83.40
69189;DHT22;56302;52.322;5.926;2022-08-01T08:32:27;19.40;82.40
69189;DHT22;56302;52.322;5.926;2022-08-01T08:34:53;19.40;83.00
69189;DHT22;56302;52.322;5.926;2022-08-01T08:37:18;19.40;83.10
69189;DHT22;56302;52.322;5.926;2022-08-01T08:39:44;19.30;83.10
69189;DHT22;56302;52.322;5.926;2022-08-01T08:42:10;19.40;82.90
69189;DHT22;56302;52.322;5.926;2022-08-01T08:44:36;19.40;82.30
69189;DHT22;56302;52.322;5.926;2022-08-01T08:47:05;19.50;81.70
69189;DHT22;56302;52.322;5.926;2022-08-01T08:49:33;19.60;80.30
69189;DHT22;56302;52.322;5.926;2022-08-01T08:52:01;19.70;79.90
69189;DHT22;56302;52.322;5.926;2022-08-01T08:54:27;20.00;80.20
69189;DHT22;56302;52.322;5.926;2022-08-01T08:56:54;20.10;77.50
69189;DHT22;56302;52.322;5.926;2022-08-01T08:59:22;20.10;76.80
69189;DHT22;56302;52.322;5.926;2022-08-01T09:01:51;20.40;76.90
69189;DHT22;56302;52.322;5.926;2022-08-01T09:04:17;20.20;76.00
69189;DHT22;56302;52.322;5.926;2022-08-01T09:06:43;20.10;74.40
69189;DHT22;56302;52.322;5.926;2022-08-01T09:09:09;20.10;76.30
69189;DHT22;56302;52.322;5.926;2022-08-01T09:11:37;20.20;73.90
69189;DHT22;56302;52.322;5.926;2022-08-01T09:16:34;20.10;74.90
69189;DHT22;56302;52.322;5.926;2022-08-01T09:19:12;20.10;74.30
69189;DHT22;56302;52.322;5.926;2022-08-01T09:21:39;20.10;72.50
69189;DHT22;56302;52.322;5.926;2022-08-01T09:24:15;20.40;72.60
69189;DHT22;56302;52.322;5.926;2022-08-01T09:26:40;20.50;70.80
69189;DHT22;56302;52.322;5.926;2022-08-01T09:29:16;20.70;68.90
69189;DHT22;56302;52.322;5.926;2022-08-01T09:31:44;20.70;69.60
69189;DHT22;56302;52.322;5.926;2022-08-01T09:34:10;20.80;68.40
69189;DHT22;56302;52.322;5.926;2022-08-01T09:36:56;20.80;69.20
69189;DHT22;56302;52.322;5.926;2022-08-01T09:39:27;21.00;68.90
69189;DHT22;56302;52.322;5.926;2022-08-01T09:41:54;21.20;69.20
69189;DHT22;56302;52.322;5.926;2022-08-01T09:44:39;21.30;68.00
69189;DHT22;56302;52.322;5.926;2022-08-01T09:47:05;21.30;67.40
69189;DHT22;56302;52.322;5.926;2022-08-01T09:49:34;21.50;66.60
69189;DHT22;56302;52.322;5.926;2022-08-01T09:52:10;21.50;65.80
69189;DHT22;56302;52.322;5.926;2022-08-01T09:54:36;21.60;65.20
69189;DHT22;56302;52.322;5.926;2022-08-01T09:57:15;21.70;64.80
69189;DHT22;56302;52.322;5.926;2022-08-01T09:59:46;21.90;64.80
69189;DHT22;56302;52.322;5.926;2022-08-01T10:02:34;21.90;64.50
69189;DHT22;56302;52.322;5.926;2022-08-01T10:05:03;21.80;63.00
69189;DHT22;56302;52.322;5.926;2022-08-01T10:07:29;21.60;64.60
69189;DHT22;56302;52.322;5.926;2022-08-01T10:09:54;21.60;64.70
69189;DHT22;56302;52.322;5.926;2022-08-01T10:12:22;21.50;63.30
69189;DHT22;56302;52.322;5.926;2022-08-01T10:14:50;21.60;64.10
69189;DHT22;56302;52.322;5.926;2022-08-01T10:17:19;21.50;65.30
69189;DHT22;56302;52.322;5.926;2022-08-01T10:19:45;21.60;66.50
69189;DHT22;56302;52.322;5.926;2022-08-01T10:22:12;21.70;65.70
69189;DHT22;56302;52.322;5.926;2022-08-01T10:24:47;21.90;64.50
69189;DHT22;56302;52.322;5.926;2022-08-01T10:27:16;22.10;63.40
69189;DHT22;56302;52.322;5.926;2022-08-01T10:30:00;22.50;63.10
69189;DHT22;56302;52.322;5.926;2022-08-01T10:32:29;22.50;60.00
69189;DHT22;56302;52.322;5.926;2022-08-01T10:34:55;22.30;60.10
69189;DHT22;56302;52.322;5.926;2022-08-01T10:37:22;22.30;58.90
69189;DHT22;56302;52.322;5.926;2022-08-01T10:39:48;22.40;60.40
69189;DHT22;56302;52.322;5.926;2022-08-01T10:42:15;22.70;61.30
69189;DHT22;56302;52.322;5.926;2022-08-01T10:44:42;23.00;60.10
69189;DHT22;56302;52.322;5.926;2022-08-01T10:47:14;22.90;59.80
69189;DHT22;56302;52.322;5.926;2022-08-01T10:50:19;22.50;58.20
69189;DHT22;56302;52.322;5.926;2022-08-01T10:53:13;22.30;59.50
69189;DHT22;56302;52.322;5.926;2022-08-01T10:58:37;22.10;60.70
69189;DHT22;56302;52.322;5.926;2022-08-01T11:01:19;22.20;61.30
69189;DHT22;56302;52.322;5.926;2022-08-01T11:03:58;22.40;57.80
69189;DHT22;56302;52.322;5.926;2022-08-01T11:06:25;22.40;57.70
69189;DHT22;56302;52.322;5.926;2022-08-01T11:08:54;22.30;58.90
69189;DHT22;56302;52.322;5.926;2022-08-01T11:11:20;22.40;58.20
69189;DHT22;56302;52.322;5.926;2022-08-01T11:14:04;22.50;59.70
69189;DHT22;56302;52.322;5.926;2022-08-01T11:16:36;22.50;58.70
69189;DHT22;56302;52.322;5.926;2022-08-01T11:19:03;22.70;59.70
69189;DHT22;56302;52.322;5.926;2022-08-01T11:27:46;22.70;58.20
69189;DHT22;56302;52.322;5.926;2022-08-01T11:32:54;22.20;61.70
69189;DHT22;56302;52.322;5.926;2022-08-01T11:35:22;22.10;61.90
69189;DHT22;56302;52.322;5.926;2022-08-01T11:37:53;21.90;62.10
69189;DHT22;56302;52.322;5.926;2022-08-01T11:40:25;21.80;62.80
69189;DHT22;56302;52.322;5.926;2022-08-01T11:43:17;21.80;62.60
69189;DHT22;56302;52.322;5.926;2022-08-01T11:45:52;21.80;61.20
69189;DHT22;56302;52.322;5.926;2022-08-01T11:48:22;21.80;61.40
69189;DHT22;56302;52.322;5.926;2022-08-01T11:50:50;21.80;60.60
69189;DHT22;56302;52.322;5.926;2022-08-01T11:53:17;21.90;61.60
69189;DHT22;56302;52.322;5.926;2022-08-01T11:55:53;22.00;60.50
69189;DHT22;56302;52.322;5.926;2022-08-01T11:58:25;22.00;61.10
69189;DHT22;56302;52.322;5.926;2022-08-01T12:00:55;21.90;60.80
69189;DHT22;56302;52.322;5.926;2022-08-01T12:03:29;21.90;59.60
69189;DHT22;56302;52.322;5.926;2022-08-01T12:05:56;21.90;60.60
69189;DHT22;56302;52.322;5.926;2022-08-01T12:08:26;21.90;59.30
69189;DHT22;56302;52.322;5.926;2022-08-01T12:10:52;21.80;57.50
69189;DHT22;56302;52.322;5.926;2022-08-01T12:13:18;21.80;59.90
69189;DHT22;56302;52.322;5.926;2022-08-01T12:15:44;21.90;59.50
69189;DHT22;56302;52.322;5.926;2022-08-01T12:18:11;21.90;58.20
69189;DHT22;56302;52.322;5.926;2022-08-01T12:20:39;22.00;58.50
69189;DHT22;56302;52.322;5.926;2022-08-01T12:23:09;22.10;57.00
69189;DHT22;56302;52.322;5.926;2022-08-01T12:25:36;22.00;54.50
69189;DHT22;56302;52.322;5.926;2022-08-01T12:28:04;22.10;55.90
69189;DHT22;56302;52.322;5.926;2022-08-01T12:30:31;22.30;55.50
69189;DHT22;56302;52.322;5.926;2022-08-01T12:33:00;22.40;55.50
69189;DHT22;56302;52.322;5.926;2022-08-01T12:35:28;22.30;55.50
69189;DHT22;56302;52.322;5.926;2022-08-01T12:37:59;22.20;54.30
69189;DHT22;56302;52.322;5.926;2022-08-01T12:40:28;22.20;53.00
69189;DHT22;56302;52.322;5.926;2022-08-01T12:42:56;22.50;53.50
69189;DHT22;56302;52.322;5.926;2022-08-01T12:45:25;22.80;52.00
69189;DHT22;56302;52.322;5.926;2022-08-01T12:47:55;23.00;52.20
69189;DHT22;56302;52.322;5.926;2022-08-01T12:50:25;23.00;51.50
69189;DHT22;56302;52.322;5.926;2022-08-01T12:52:51;23.00;49.80
69189;DHT22;56302;52.322;5.926;2022-08-01T12:55:18;22.70;51.00
69189;DHT22;56302;52.322;5.926;2022-08-01T12:57:46;22.70;52.90
69189;DHT22;56302;52.322;5.926;2022-08-01T13:00:18;22.50;49.90
69189;DHT22;56302;52.322;5.926;2022-08-01T13:02:46;22.20;50.80
69189;DHT22;56302;52.322;5.926;2022-08-01T13:05:13;22.50;49.90
69189;DHT22;56302;52.322;5.926;2022-08-01T13:10:10;22.80;50.70
69189;DHT22;56302;52.322;5.926;2022-08-01T13:12:37;22.70;53.10
69189;DHT22;56302;52.322;5.926;2022-08-01T13:15:21;22.50;52.10
69189;DHT22;56302;52.322;5.926;2022-08-01T13:17:50;22.50;54.30
69189;DHT22;56302;52.322;5.926;2022-08-01T13:20:32;22.40;54.70
69189;DHT22;56302;52.322;5.926;2022-08-01T13:23:15;22.30;54.00
69189;DHT22;56302;52.322;5.926;2022-08-01T13:25:54;22.30;53.80
69189;DHT22;56302;52.322;5.926;2022-08-01T13:28:27;22.60;53.20
69189;DHT22;56302;52.322;5.926;2022-08-01T13:31:05;22.80;52.60
69189;DHT22;56302;52.322;5.926;2022-08-01T13:33:46;22.70;52.40
69189;DHT22;56302;52.322;5.926;2022-08-01T13:36:13;22.60;52.40
69189;DHT22;56302;52.322;5.926;2022-08-01T13:38:40;22.50;52.60
69189;DHT22;56302;52.322;5.926;2022-08-01T13:41:25;22.40;52.50
69189;DHT22;56302;52.322;5.926;2022-08-01T13:43:50;22.60;52.90
69189;DHT22;56302;52.322;5.926;2022-08-01T13:46:16;22.50;52.30
69189;DHT22;56302;52.322;5.926;2022-08-01T13:48:42;22.50;52.70
69189;DHT22;56302;52.322;5.926;2022-08-01T13:51:07;22.70;50.00
69189;DHT22;56302;52.322;5.926;2022-08-01T13:53:33;22.70;52.20
69189;DHT22;56302;52.322;5.926;2022-08-01T13:55:58;22.60;50.90
69189;DHT22;56302;52.322;5.926;2022-08-01T13:58:24;22.40;50.50
69189;DHT22;56302;52.322;5.926;2022-08-01T14:00:50;22.30;52.30
69189;DHT22;56302;52.322;5.926;2022-08-01T14:03:15;22.10;52.00
69189;DHT22;56302;52.322;5.926;2022-08-01T14:05:43;22.00;50.50
69189;DHT22;56302;52.322;5.926;2022-08-01T14:08:09;22.10;51.50
69189;DHT22;56302;52.322;5.926;2022-08-01T14:10:34;22.20;51.40
69189;DHT22;56302;52.322;5.926;2022-08-01T14:13:00;22.30;49.90
69189;DHT22;56302;52.322;5.926;2022-08-01T14:15:25;22.40;51.20
69189;DHT22;56302;52.322;5.926;2022-08-01T14:17:51;22.30;51.80
69189;DHT22;56302;52.322;5.926;2022-08-01T14:20:17;22.20;51.20
69189;DHT22;56302;52.322;5.926;2022-08-01T14:22:45;22.10;49.20
69189;DHT22;56302;52.322;5.926;2022-08-01T14:25:11;22.10;49.30
69189;DHT22;56302;52.322;5.926;2022-08-01T14:27:37;22.00;48.70
69189;DHT22;56302;52.322;5.926;2022-08-01T14:30:03;21.70;49.70
69189;DHT22;56302;52.322;5.926;2022-08-01T14:32:29;21.60;49.90
69189;DHT22;56302;52.322;5.926;2022-08-01T14:34:55;21.60;49.50
69189;DHT22;56302;52.322;5.926;2022-08-01T14:37:22;21.70;49.60
69189;DHT22;56302;52.322;5.926;2022-08-01T14:39:48;21.80;50.00
69189;DHT22;56302;52.322;5.926;2022-08-01T14:42:14;21.70;49.40
69189;DHT22;56302;52.322;5.926;2022-08-01T14:44:39;21.70;48.30
69189;DHT22;56302;52.322;5.926;2022-08-01T14:47:05;21.70;46.40
69189;DHT22;56302;52.322;5.926;2022-08-01T14:49:30;21.70;47.30
69189;DHT22;56302;52.322;5.926;2022-08-01T14:51:56;21.80;46.00
69189;DHT22;56302;52.322;5.926;2022-08-01T14:54:21;21.70;44.50
69189;DHT22;56302;52.322;5.926;2022-08-01T14:56:47;21.60;46.60
69189;DHT22;56302;52.322;5.926;2022-08-01T14:59:12;21.50;47.50
69189;DHT22;56302;52.322;5.926;2022-08-01T15:01:38;21.40;48.00
69189;DHT22;56302;52.322;5.926;2022-08-01T15:04:03;21.30;46.90
69189;DHT22;56302;52.322;5.926;2022-08-01T15:06:29;21.40;47.30
69189;DHT22;56302;52.322;5.926;2022-08-01T15:08:54;21.50;46.70
69189;DHT22;56302;52.322;5.926;2022-08-01T15:11:20;21.50;48.10
69189;DHT22;56302;52.322;5.926;2022-08-01T15:13:46;21.50;48.20
69189;DHT22;56302;52.322;5.926;2022-08-01T15:16:31;21.50;47.60
69189;DHT22;56302;52.322;5.926;2022-08-01T15:18:57;21.50;47.30
69189;DHT22;56302;52.322;5.926;2022-08-01T15:21:22;21.50;48.60
69189;DHT22;56302;52.322;5.926;2022-08-01T15:23:48;21.30;47.60
69189;DHT22;56302;52.322;5.926;2022-08-01T15:26:14;21.20;49.80
69189;DHT22;56302;52.322;5.926;2022-08-01T15:28:39;21.30;49.50
69189;DHT22;56302;52.322;5.926;2022-08-01T15:31:05;21.40;46.20
69189;DHT22;56302;52.322;5.926;2022-08-01T15:33:30;21.40;47.40
69189;DHT22;56302;52.322;5.926;2022-08-01T15:35:56;21.40;46.90
69189;DHT22;56302;52.322;5.926;2022-08-01T15:38:21;21.50;46.50
69189;DHT22;56302;52.322;5.926;2022-08-01T15:40:47;21.40;46.40
69189;DHT22;56302;52.322;5.926;2022-08-01T15:43:12;21.40;47.90
69189;DHT22;56302;52.322;5.926;2022-08-01T15:45:39;21.30;46.50
69189;DHT22;56302;52.322;5.926;2022-08-01T15:48:04;21.30;45.90
69189;DHT22;56302;52.322;5.926;2022-08-01T15:50:30;21.30;43.40
69189;DHT22;56302;52.322;5.926;2022-08-01T15:52:56;21.30;44.10
69189;DHT22;56302;52.322;5.926;2022-08-01T15:55:21;21.20;44.40
69189;DHT22;56302;52.322;5.926;2022-08-01T15:57:47;21.10;44.30
69189;DHT22;56302;52.322;5.926;2022-08-01T16:00:12;21.10;41.60
69189;DHT22;56302;52.322;5.926;2022-08-01T16:02:39;21.10;41.20
69189;DHT22;56302;52.322;5.926;2022-08-01T16:05:06;21.10;42.80